Irura, Spain
Current Conditions -  °F | °C
As of 7:00 PM on Saturday 25 Oct 2014 (Local Time) from LESO Reporting Station
Few Clouds Few Clouds  
Wind Chill: 66°   Ceiling: Unl
Heat Index: 66°   Visibility: 6mi
Dew Point: 63°   Wind: 2mph
Humidity: 88%   Direction: NA
Pressure: 30.15"   Gusts: NA
Location:  43.17°N, 2.07°W
Report Text: LESO 251700Z VRB02KT 9999 FEW010 19/17 Q1021
Loading
Personal Weather Stations






























Interactive Weather Map New forecast layout! Learn more

10-Day Weather Forecast

Advertisements
Track Severe Weather on mobile